Vaaraa aiheuttavia sääilmiöitä ei ole odotettavissa.    Ei varoituksia

Webkamera Lisätietoa Webcam


Yksityisiä sääasemia lähellä:

Sääasema Juupajoki

Sääasema Orivesi

Sääasema Muurame

Sääasema Jyväskylä

Sääasema Vihtavuori


Löydät sääaseman tiedot myös:

Finland Weather Exchange

European Weather Network

Weather Underground

AWEKAS

Windy.com



Säätiedot lähimmiltä METAR asemilta

   
EFHA - Halli (Fin-Afb), Finland
Etäisyys asemalta: Kaakko 25 km
Päivitetty: 10.12.2019 17:50
Melkein pilvistä  
Melkein pilvistä  
   Tuuli: Länsiluode 2.6 m/s
Tuuli: Länsiluode 2.6 m/s
Lämpötila: -5°C
Tuulen hyytävyys: -9°C
Kastepiste: -6°C
Kosteus: 93%
Ilmanpaine: 1012 hPa
Pilvisyys: Melkein pilvistä
Näkyvyys: Enemmän kuin 10 km
Pilvitiedot: Melkein pilvistä 244 m
EFHA 101550Z AUTO 30005KT 9999 BKN008 M05/M06 Q1012
EFJY - Jyvaskyla (Mil/Civ), Finland
Etäisyys asemalta: Koillinen 75 km
Päivitetty: 10.12.2019 17:50
Melkein pilvistä  
Melkein pilvistä  
   Tuuli: Länsiluode 3.6 m/s
Tuuli: Länsiluode 3.6 m/s
Lämpötila: -5°C
Tuulen hyytävyys: -10°C
Kastepiste: -7°C
Kosteus: 86%
Ilmanpaine: 1011 hPa
Pilvisyys: Melkein pilvistä
Näkyvyys: Enemmän kuin 10 km
Pilvitiedot: Melkein pilvistä 274 m
EFJY 101550Z AUTO 30007KT 9999 BKN009 M05/M07 Q1011
EFTP - Tampere/Pirkkala, Finland
Etäisyys asemalta: Lounas 81 km
Päivitetty: 10.12.2019 17:50
Selkeää  
Selkeää  
   Tuuli: Itä 0.5 m/s
Tuuli: Itä 0.5 m/s
Lämpötila: -7°C
Kastepiste: -8°C
Kosteus: 93%
Ilmanpaine: 1013 hPa
Näkyvyys: Enemmän kuin 10 km
Pilvitiedot: Selkeää
EFTP 101550Z AUTO 08001KT CAVOK M07/M08 Q1013
EFSI - Seinajoki-Ilmajoki, Finland
Etäisyys asemalta: Luode 114 km
Päivitetty: 10.12.2019 17:50
Selkeää  
Selkeää  
   Tuuli: Kaakko 0.5 m/s
Tuuli: Kaakko 0.5 m/s
Lämpötila: -11°C
Kastepiste: -12°C
Kosteus: 92%
Ilmanpaine: 1012 hPa
Näkyvyys: Enemmän kuin 10 km
Pilvitiedot: Selkeää
EFSI 101550Z AUTO 14001KT CAVOK M11/M12 Q1012
EFMI - Mikkeli, Finland
Etäisyys asemalta: Itäkaakko 147 km
Päivitetty: 10.12.2019 17:50
Pilvistä  
Pilvistä  
   Tuuli: Länsiluode 3.6 m/s
Tuuli: Länsiluode 3.6 m/s
Lämpötila: -4°C
Tuulen hyytävyys: -9°C
Kastepiste: -6°C
Kosteus: 86%
Ilmanpaine: 1011 hPa
Pilvisyys: Pilvistä
Näkyvyys: Enemmän kuin 10 km
Pilvitiedot: Pilvistä 396 m
EFMI 101550Z AUTO 29007KT 260V010 9999 OVC013 M04/M06 Q1011
EFPO - Pori (Mil/Civ), Finland
Etäisyys asemalta: Länsilounas 154 km
Päivitetty: 10.12.2019 17:50
Selkeää  
Selkeää  
   Tuuli: Kaakko 1.5 m/s
Tuuli: Kaakko 1.5 m/s
Lämpötila: -7°C
Tuulen hyytävyys: -10°C
Kastepiste: -8°C
Kosteus: 93%
Ilmanpaine: 1013 hPa
Näkyvyys: Enemmän kuin 10 km
Pilvitiedot: Selkeää
EFPO 101550Z AUTO 14003KT 090V160 CAVOK M07/M08 Q1013
EFUT - Utti (Fin-Afb), Finland
Etäisyys asemalta: Kaakko 180 km
Päivitetty: 10.12.2019 17:50
Selkeää  
Selkeää  
   Tuuli: Luode 3.1 m/s
Tuuli: Luode 3.1 m/s
Lämpötila: -4°C
Tuulen hyytävyys: -8°C
Kastepiste: -6°C
Kosteus: 86%
Ilmanpaine: 1011 hPa
Näkyvyys: Enemmän kuin 10 km
Pilvitiedot: Selkeää
EFUT 101550Z AUTO 31006KT 280V350 CAVOK M04/M06 Q1011
EFVA - Vaasa, Finland
Etäisyys asemalta: Luode 180 km
Päivitetty: 10.12.2019 17:50
Selkeää  
Selkeää  
   Tuuli: Kaakko 2.1 m/s
Tuuli: Kaakko 2.1 m/s
Lämpötila: -9°C
Tuulen hyytävyys: -13°C
Kastepiste: -10°C
Kosteus: 93%
Ilmanpaine: 1012 hPa
Näkyvyys: Enemmän kuin 10 km
Pilvitiedot: Selkeää
EFVA 101550Z AUTO 14004KT CAVOK M09/M10 Q1012
EFHK - Helsinki/Vantaa, Finland
Etäisyys asemalta: Etelä 191 km
Päivitetty: 10.12.2019 17:50
Selkeää  
Selkeää  
   Tuuli: Luode 3.1 m/s
Tuuli: Luode 3.1 m/s
Lämpötila: -5°C
Tuulen hyytävyys: -9°C
Kastepiste: -6°C
Kosteus: 93%
Ilmanpaine: 1013 hPa
Näkyvyys: Enemmän kuin 10 km
Pilvitiedot: Selkeää
EFHK 101550Z 31006KT CAVOK M05/M06 Q1013 NOSIG

Alkuperäinen skripti  Saratoga-weather.org Sovitettu myös templatelle  Weerstation Leuven

Laitteet joita käytämme:

Sääasema
Davis VP2

Sääasemaohjelma
Cumulus

Sääaseman palvelin
HP ProBook 6460b

Palveluntarjoaja
Radicenter

Davis VP2

Cumulus

HP ProBook 6460b

Radicenter




Flag Counter Cumulus Top Weather Sites